createdAt,value
2022-10-13T00:03:57.570Z,11.31
2022-10-13T00:09:05.400Z,11.38
2022-10-13T00:14:15.159Z,11.38
2022-10-13T00:19:24.277Z,11.44
2022-10-13T00:24:34.039Z,11.5
2022-10-13T00:29:43.802Z,11.5
2022-10-13T00:34:52.315Z,11.56
2022-10-13T00:40:02.159Z,11.56
2022-10-13T00:45:10.520Z,11.5
2022-10-13T00:50:18.362Z,11.56
2022-10-13T00:55:26.233Z,11.56
2022-10-13T01:02:52.392Z,11.44
2022-10-13T01:08:08.546Z,11.5
2022-10-13T01:12:34.681Z,11.5
2022-10-13T01:17:43.805Z,11.56
2022-10-13T01:22:51.643Z,11.62
2022-10-13T01:28:00.121Z,11.62
2022-10-13T01:33:09.271Z,11.56
2022-10-13T01:38:19.641Z,11.56
2022-10-13T01:43:28.790Z,11.69
2022-10-13T01:48:37.882Z,11.56
2022-10-13T01:53:48.316Z,11.62
2022-10-13T01:58:58.681Z,11.62
2022-10-13T02:04:08.443Z,11.69
2022-10-13T02:09:16.921Z,11.69
2022-10-13T02:14:26.679Z,11.75
2022-10-13T02:19:35.803Z,11.75
2022-10-13T02:24:44.280Z,11.69
2022-10-13T02:29:52.763Z,11.75
2022-10-13T02:35:02.529Z,11.94
2022-10-13T02:40:11.650Z,11.88
2022-10-13T02:45:21.401Z,11.88
2022-10-13T02:50:31.801Z,11.94
2022-10-13T02:55:41.562Z,11.88
2022-10-13T03:00:50.835Z,11.94
2022-10-13T03:05:59.829Z,11.94
2022-10-13T03:11:09.547Z,11.94
2022-10-13T03:16:19.960Z,11.94
2022-10-13T03:21:27.807Z,12
2022-10-13T03:26:37.562Z,12
2022-10-13T03:31:46.679Z,11.94
2022-10-13T03:36:54.520Z,12
2022-10-13T03:42:03.006Z,12
2022-10-13T03:47:11.481Z,11.94
2022-10-13T03:52:20.516Z,12.12
2022-10-13T03:57:29.719Z,12
2022-10-13T04:02:38.839Z,11.94
2022-10-13T04:07:48.598Z,11.94
2022-10-13T04:13:04.300Z,11.94
2022-10-13T04:18:19.809Z,11.94
2022-10-13T04:23:16.606Z,12
2022-10-13T04:28:25.807Z,12
2022-10-13T04:33:34.200Z,12
2022-10-13T04:38:42.680Z,12
2022-10-13T04:43:51.166Z,12.12
2022-10-13T04:49:06.772Z,11.94
2022-10-13T04:54:57.594Z,12
2022-10-13T05:00:05.279Z,12
2022-10-13T05:05:16.284Z,12
2022-10-13T05:10:26.058Z,12.06
2022-10-13T05:15:35.161Z,12.12
2022-10-13T05:20:44.920Z,12.06
2022-10-13T05:25:54.136Z,12.06
2022-10-13T05:31:10.939Z,12.06
2022-10-13T05:36:26.452Z,12.06
2022-10-13T05:41:42.658Z,12.12
2022-10-13T05:46:57.505Z,12.12
2022-10-13T05:52:12.417Z,12.19
2022-10-13T05:57:27.264Z,12.19
2022-10-13T06:02:42.202Z,12.19
2022-10-13T06:07:08.920Z,12.31
2022-10-13T06:12:19.272Z,12.25
2022-10-13T06:17:27.799Z,12.25
2022-10-13T06:22:37.565Z,12.31
2022-10-13T06:27:46.050Z,12.44
2022-10-13T06:32:55.145Z,12.5
2022-10-13T06:38:04.285Z,12.56
2022-10-13T06:43:12.767Z,12.56
2022-10-13T06:48:21.240Z,12.69
2022-10-13T06:53:29.753Z,12.62
2022-10-13T06:58:40.119Z,12.69
2022-10-13T07:03:49.883Z,12.81
2022-10-13T07:08:58.361Z,13
2022-10-13T07:14:07.480Z,12.94
2022-10-13T07:19:15.998Z,13.06
2022-10-13T07:24:25.078Z,13.31
2022-10-13T07:29:34.198Z,13.44
2022-10-13T07:34:43.961Z,13.31
2022-10-13T07:39:58.361Z,13.56
2022-10-13T07:45:15.808Z,13.75
2022-10-13T07:50:31.881Z,14.12
2022-10-13T07:55:48.063Z,14.12
2022-10-13T08:01:05.494Z,14.06
2022-10-13T08:05:38.685Z,14.19
2022-10-13T08:10:48.592Z,14.38
2022-10-13T08:21:57.410Z,14.5
2022-10-13T08:26:17.729Z,14.56
2022-10-13T08:31:27.900Z,14.69
2022-10-13T08:36:37.882Z,14.56
2022-10-13T08:41:47.662Z,14.5
2022-10-13T08:46:59.356Z,14.56
2022-10-13T08:52:07.787Z,14.62
2022-10-13T08:57:17.944Z,14.88
2022-10-13T09:02:26.070Z,15.06
2022-10-13T09:07:36.439Z,15.12
2022-10-13T09:12:46.204Z,15.19
2022-10-13T09:17:55.982Z,15.44
2022-10-13T09:23:05.722Z,15.31
2022-10-13T09:28:14.273Z,15.5
2022-10-13T09:33:23.326Z,15.69
2022-10-13T09:38:31.168Z,15.94
2022-10-13T09:43:40.281Z,16.06
2022-10-13T09:48:50.681Z,16.25
2022-10-13T09:53:59.159Z,16.44
2022-10-13T09:59:08.278Z,16.88
2022-10-13T10:04:19.481Z,16.88
2022-10-13T10:09:33.166Z,16.81
2022-10-13T10:20:06.924Z,17.06
2022-10-13T10:25:22.291Z,17.19
2022-10-13T10:30:38.443Z,17.25
2022-10-13T10:35:55.885Z,17.12
2022-10-13T10:41:13.409Z,17.12
2022-10-13T10:46:29.480Z,17.06
2022-10-13T10:57:05.650Z,17.25
2022-10-13T11:02:22.817Z,17.25
2022-10-13T11:07:40.524Z,17.12
2022-10-13T11:12:57.977Z,17.25
2022-10-13T11:18:21.132Z,17.12
2022-10-13T11:20:51.960Z,17.25
2022-10-13T11:26:01.114Z,17.06
2022-10-13T11:31:09.562Z,17.19
2022-10-13T11:36:18.681Z,17.38
2022-10-13T11:41:28.438Z,17.5
2022-10-13T11:46:40.762Z,17.5
2022-10-13T11:51:50.529Z,17.56
2022-10-13T11:57:04.088Z,17.44
2022-10-13T12:02:12.600Z,17.25
2022-10-13T12:07:21.707Z,17.44
2022-10-13T12:12:31.479Z,17.44
2022-10-13T12:17:40.629Z,17.25
2022-10-13T12:22:51.002Z,17.25
2022-10-13T12:28:03.320Z,17.25
2022-10-13T12:33:13.082Z,17.19
2022-10-13T12:38:22.218Z,17.12
2022-10-13T12:43:31.990Z,17.06
2022-10-13T12:48:41.720Z,16.94
2022-10-13T12:53:51.511Z,16.88
2022-10-13T12:59:01.241Z,16.81
2022-10-13T13:04:10.357Z,16.75
2022-10-13T13:09:18.843Z,16.69
2022-10-13T13:14:29.638Z,16.62
2022-10-13T13:24:46.205Z,16.44
2022-10-13T14:12:27.924Z,16
2022-10-13T14:17:40.254Z,15.75
2022-10-13T14:22:55.744Z,15.94
2022-10-13T14:28:13.473Z,15.75
2022-10-13T14:33:26.143Z,15.75
2022-10-13T14:38:42.313Z,15.81
2022-10-13T14:43:58.479Z,15.75
2022-10-13T14:49:14.649Z,15.75
2022-10-13T14:54:30.148Z,15.75
2022-10-13T14:59:45.059Z,15.62
2022-10-13T15:04:10.548Z,15.69
2022-10-13T15:08:35.439Z,15.56
2022-10-13T15:13:51.011Z,15.5
2022-10-13T15:19:05.821Z,15.5
2022-10-13T15:23:38.359Z,15.5
2022-10-13T15:28:48.188Z,15.38
2022-10-13T15:33:56.631Z,15.44
2022-10-13T15:39:06.363Z,15.31
2022-10-13T15:44:15.486Z,15.19
2022-10-13T15:49:25.241Z,15.25
2022-10-13T15:54:35.006Z,15.19
2022-10-13T15:59:44.764Z,15.06
2022-10-13T16:04:52.601Z,14.94
2022-10-13T16:10:02.449Z,14.88
2022-10-13T16:15:10.840Z,14.88
2022-10-13T16:20:19.965Z,15
2022-10-13T16:25:28.441Z,15.12
2022-10-13T16:30:36.919Z,14.94
2022-10-13T16:35:44.768Z,15
2022-10-13T16:40:53.242Z,14.94
2022-10-13T16:46:03.029Z,14.88
2022-10-13T16:51:12.123Z,14.75
2022-10-13T16:56:21.241Z,14.69
2022-10-13T17:01:30.360Z,14.56
2022-10-13T17:06:39.480Z,14.62
2022-10-13T17:16:58.291Z,14.5
2022-10-13T17:22:05.561Z,14.5
2022-10-13T17:27:14.044Z,14.56
2022-10-13T17:32:22.519Z,14.69
2022-10-13T17:37:32.277Z,14.56
2022-10-13T17:42:47.420Z,14.69
2022-10-13T17:48:02.936Z,14.69
2022-10-13T17:53:19.134Z,14.56
2022-10-13T17:58:33.984Z,14.62
2022-10-13T18:03:50.210Z,14.75
2022-10-13T18:09:08.550Z,14.69
2022-10-13T18:14:21.384Z,14.38
2022-10-13T18:19:40.064Z,14.44
2022-10-13T18:24:54.676Z,14.5
2022-10-13T18:30:05.849Z,14.5
2022-10-13T18:35:22.653Z,14.44
2022-10-13T18:39:23.642Z,14.25
2022-10-13T18:44:33.402Z,14.31
2022-10-13T18:49:41.913Z,14.12
2022-10-13T18:54:50.362Z,14.25
2022-10-13T18:59:58.843Z,14.44
2022-10-13T19:05:14.453Z,14
2022-10-13T19:10:29.374Z,14.19
2022-10-13T19:15:45.503Z,14.19
2022-10-13T19:21:01.031Z,14.19
2022-10-13T19:26:15.906Z,14
2022-10-13T19:31:30.789Z,14.06
2022-10-13T19:36:02.680Z,14.25
2022-10-13T19:41:11.801Z,13.88
2022-10-13T19:46:21.596Z,14.06
2022-10-13T19:51:30.691Z,14.19
2022-10-13T19:56:39.161Z,14.25
2022-10-13T20:01:50.210Z,14.19
2022-10-13T20:06:59.320Z,14.19
2022-10-13T20:12:09.090Z,14.19
2022-10-13T20:17:19.566Z,14.19
2022-10-13T20:22:27.960Z,14.12
2022-10-13T20:27:37.088Z,14.19
2022-10-13T20:32:44.922Z,14.06
2022-10-13T20:37:54.699Z,14.19
2022-10-13T20:43:03.159Z,14.06
2022-10-13T20:48:13.593Z,14.12
2022-10-13T20:53:21.401Z,14.06
2022-10-13T20:58:29.881Z,14
2022-10-13T21:03:40.309Z,14.12
2022-10-13T21:08:49.478Z,14.06
2022-10-13T21:13:57.886Z,14
2022-10-13T21:19:06.360Z,14.06
2022-10-13T21:24:14.840Z,14
2022-10-13T21:29:23.303Z,14
2022-10-13T21:34:33.079Z,13.88
2022-10-13T21:39:42.206Z,13.81
2022-10-13T21:44:57.322Z,13.88
2022-10-13T21:50:14.763Z,13.75
2022-10-13T21:55:32.375Z,13.75
2022-10-13T22:00:48.252Z,13.75
2022-10-13T22:06:04.592Z,13.75
2022-10-13T22:11:19.880Z,13.75
2022-10-13T22:15:46.039Z,13.62
2022-10-13T22:20:55.803Z,13.62
2022-10-13T22:26:04.922Z,13.62
2022-10-13T22:31:13.434Z,13.62
2022-10-13T22:36:23.159Z,13.62
2022-10-13T22:41:31.639Z,13.62
2022-10-13T22:46:41.388Z,13.56
2022-10-13T22:51:51.160Z,13.56
2022-10-13T22:56:59.668Z,13.62
2022-10-13T23:02:09.399Z,13.62
2022-10-13T23:07:19.911Z,13.56
2022-10-13T23:12:27.640Z,13.62
2022-10-13T23:17:38.136Z,13.62
2022-10-13T23:22:53.659Z,13.69
2022-10-13T23:28:08.891Z,13.62
2022-10-13T23:33:24.736Z,13.62
2022-10-13T23:38:40.234Z,13.62
2022-10-13T23:43:54.522Z,13.62
2022-10-13T23:49:10.630Z,13.62
2022-10-13T23:53:38.679Z,13.62
2022-10-13T23:58:48.447Z,13.62
